Kykotsmovi Village, Arizona
Current Conditions -  °F | °C
As of 11:56 AM on Friday 28 Nov 2014 (Local Time) from KINW Reporting Station
Clear Clear  
Wind Chill: 56°   Ceiling: Unl
Heat Index: 56°   Visibility: 10mi
Dew Point: 16°   Wind: 7mph
Humidity: 21%   Direction: 120°ESE
Pressure: 30.17"   Gusts: NA
Location:  35.87°N, 110.62°W
Report Text: KINW 281856Z AUTO 12006KT 10SM CLR 13/M09 A3017 RMK AO2 SLP206 T01331089
Loading
Personal Weather Stations






























Interactive Weather Map New forecast layout! Learn more

10-Day Weather Forecast

Advertisements
Track Severe Weather on mobile